Time;durP1;ratioP1;P1;durP2;ratioP2;P2;SDS_P1;SDS_P2;PMS_P1;PMS_P2;Temp;Humidity;BMP_temperature;BMP_pressure;BME280_temperature;BME280_humidity;BME280_pressure;Samples;Min_cycle;Max_cycle;Signal;HPM_P1;HPM_P2
2023/05/03 03:01:55;;;;;;;3.28;1.50;;;9.30;99.90;;;;;;5585766;23;93835;-73
2023/05/03 03:04:21;;;;;;;4.65;1.70;;;9.30;99.90;;;;;;4878183;28;92595;-73
2023/05/03 03:06:46;;;;;;;2.85;1.67;;;9.30;99.90;;;;;;4879028;28;95008;-73
2023/05/03 03:09:12;;;;;;;3.70;1.30;;;9.30;99.90;;;;;;4877849;28;92504;-74
2023/05/03 03:11:38;;;;;;;5.32;1.60;;;9.40;99.90;;;;;;4877946;28;93137;-73
2023/05/03 03:14:03;;;;;;;2.60;1.20;;;9.40;99.90;;;;;;4878776;28;93317;-71
2023/05/03 03:16:29;;;;;;;4.57;1.20;;;9.50;99.90;;;;;;4876044;28;92691;-72
2023/05/03 03:18:55;;;;;;;2.92;1.35;;;9.50;99.90;;;;;;4875638;28;93437;-71
2023/05/03 03:21:21;;;;;;;3.15;1.20;;;9.60;99.90;;;;;;4876498;28;93184;-73
2023/05/03 03:23:47;;;;;;;2.80;1.45;;;9.50;99.90;;;;;;4877753;28;93315;-73
2023/05/03 03:26:12;;;;;;;4.53;1.30;;;9.50;99.90;;;;;;4879654;28;93645;-73
2023/05/03 03:28:38;;;;;;;2.38;1.10;;;9.50;99.90;;;;;;4879871;28;92737;-73
2023/05/03 03:31:04;;;;;;;6.00;1.40;;;9.50;99.90;;;;;;4874867;28;94234;-73
2023/05/03 03:33:29;;;;;;;3.58;1.42;;;9.40;99.90;;;;;;4883446;28;94842;-73
2023/05/03 03:35:55;;;;;;;4.28;1.27;;;9.30;99.90;;;;;;4879053;28;92417;-73
2023/05/03 03:38:20;;;;;;;3.92;1.30;;;9.30;99.90;;;;;;4878692;28;92850;-73
2023/05/03 03:40:46;;;;;;;3.25;1.20;;;9.20;99.90;;;;;;4880428;28;93513;-73
2023/05/03 03:43:12;;;;;;;2.80;1.35;;;9.20;99.90;;;;;;4876618;28;92660;-73
2023/05/03 03:45:37;;;;;;;2.30;1.17;;;9.10;99.90;;;;;;4874271;28;92544;-72
2023/05/03 03:48:03;;;;;;;2.20;1.08;;;9.20;99.90;;;;;;4878431;28;93567;-73
2023/05/03 03:50:29;;;;;;;4.85;1.23;;;9.20;99.90;;;;;;4877232;28;92709;-73
2023/05/03 03:52:55;;;;;;;2.20;1.20;;;9.30;99.90;;;;;;4875916;28;92851;-73
2023/05/03 03:55:20;;;;;;;3.20;1.48;;;9.30;99.90;;;;;;4877920;28;93479;-71
2023/05/03 03:57:46;;;;;;;6.47;1.83;;;9.30;99.90;;;;;;4875084;28;94081;-73
2023/05/03 04:00:13;;;;;;;2.92;1.20;;;9.30;99.90;;;;;;4877783;28;93325;-71
2023/05/03 04:02:39;;;;;;;3.53;1.40;;;9.40;99.90;;;;;;4872471;28;93095;-72
2023/05/03 04:05:06;;;;;;;3.80;1.10;;;9.50;99.90;;;;;;4875774;28;92559;-72
2023/05/03 04:07:32;;;;;;;3.10;1.50;;;9.60;99.90;;;;;;4876225;28;93706;-71
2023/05/03 04:09:58;;;;;;;3.80;1.27;;;9.50;99.90;;;;;;4872519;28;93324;-72
2023/05/03 04:12:23;;;;;;;2.67;1.10;;;9.50;99.90;;;;;;4877939;28;92742;-71
2023/05/03 04:14:49;;;;;;;4.40;1.33;;;9.60;99.90;;;;;;4879389;28;92165;-71
2023/05/03 04:17:15;;;;;;;2.55;1.23;;;9.60;99.90;;;;;;4879357;28;92545;-72
2023/05/03 04:19:42;;;;;;;3.65;1.58;;;9.60;99.90;;;;;;4875969;28;94913;-72
2023/05/03 04:22:08;;;;;;;3.30;0.80;;;9.70;99.90;;;;;;4872369;28;93999;-73
2023/05/03 04:24:38;;;;;;;4.60;0.90;;;9.80;99.90;;;;;;4876867;28;92552;-73
2023/05/03 04:27:04;;;;;;;;;;;9.80;99.10;;;;;;4876477;28;93234;-72
2023/05/03 04:29:30;;;;;;;7.53;1.42;;;9.80;99.40;;;;;;4878788;28;93122;-71
2023/05/03 04:31:56;;;;;;;3.47;1.20;;;9.80;99.20;;;;;;4877062;28;93348;-74
2023/05/03 04:34:22;;;;;;;2.63;1.30;;;9.70;99.20;;;;;;4878232;28;92482;-71
2023/05/03 04:36:48;;;;;;;3.25;1.65;;;9.80;99.50;;;;;;4874399;28;91607;-71
2023/05/03 04:39:14;;;;;;;2.83;1.10;;;9.70;99.80;;;;;;4878952;28;93368;-71
2023/05/03 04:41:40;;;;;;;4.57;1.20;;;9.80;99.90;;;;;;4881106;28;92670;-70
2023/05/03 04:44:06;;;;;;;4.15;1.30;;;9.90;99.90;;;;;;4876765;28;93098;-72
2023/05/03 04:46:32;;;;;;;2.60;1.15;;;9.90;99.40;;;;;;4877911;28;92545;-71
2023/05/03 04:48:58;;;;;;;2.90;1.38;;;9.90;99.90;;;;;;4878690;28;93174;-74
2023/05/03 04:51:24;;;;;;;1.90;0.95;;;10.00;99.60;;;;;;4877200;28;92744;-71
2023/05/03 04:53:49;;;;;;;8.57;1.27;;;10.10;99.80;;;;;;4874227;28;92642;-73
2023/05/03 04:56:15;;;;;;;3.90;1.48;;;10.10;99.10;;;;;;4881220;28;94520;-73
2023/05/03 04:58:41;;;;;;;3.28;1.60;;;10.20;99.00;;;;;;4872666;28;93187;-73
2023/05/03 05:01:07;;;;;;;2.83;1.50;;;10.10;99.20;;;;;;4872960;28;92966;-74
2023/05/03 05:03:33;;;;;;;3.38;1.40;;;10.20;99.00;;;;;;4871325;28;93777;-74
2023/05/03 05:05:59;;;;;;;2.40;1.10;;;10.30;99.00;;;;;;4880826;28;93320;-73
2023/05/03 05:08:24;;;;;;;2.92;1.23;;;10.40;98.70;;;;;;4877313;28;93681;-73
2023/05/03 05:10:50;;;;;;;3.25;1.60;;;10.60;97.60;;;;;;4876389;28;93633;-73
2023/05/03 05:13:16;;;;;;;2.63;1.20;;;10.60;97.40;;;;;;4871123;28;93839;-73
2023/05/03 05:15:42;;;;;;;3.65;1.83;;;10.60;97.20;;;;;;4873726;28;92691;-73
2023/05/03 05:18:08;;;;;;;5.00;1.38;;;10.60;97.10;;;;;;4873367;28;92769;-74
2023/05/03 05:20:34;;;;;;;3.03;1.65;;;10.60;97.10;;;;;;4868095;28;93082;-74
2023/05/03 05:22:59;;;;;;;4.03;1.48;;;10.60;97.30;;;;;;4869435;28;92531;-74
2023/05/03 05:25:26;;;;;;;5.82;1.60;;;10.60;97.30;;;;;;4875911;28;91943;-73
2023/05/03 05:27:51;;;;;;;2.70;1.40;;;10.70;97.80;;;;;;4876954;28;94208;-73
2023/05/03 05:30:18;;;;;;;4.07;1.88;;;10.80;96.80;;;;;;4872963;28;93345;-73
2023/05/03 05:32:43;;;;;;;2.85;1.60;;;10.90;96.30;;;;;;4867993;28;93500;-73
2023/05/03 05:35:09;;;;;;;3.10;1.30;;;11.00;96.50;;;;;;4871371;28;93886;-73
2023/05/03 05:37:35;;;;;;;7.15;1.83;;;11.10;96.90;;;;;;4871387;28;94251;-72
2023/05/03 05:40:00;;;;;;;4.18;1.50;;;11.20;95.70;;;;;;4877135;28;92932;-72
2023/05/03 05:42:26;;;;;;;3.92;1.70;;;11.30;95.80;;;;;;4879309;28;92769;-72
2023/05/03 05:44:52;;;;;;;5.35;1.65;;;11.50;95.80;;;;;;4876621;28;94192;-72
2023/05/03 05:47:18;;;;;;;3.30;1.70;;;11.70;95.70;;;;;;4873797;28;94989;-72
2023/05/03 05:49:43;;;;;;;5.70;2.53;;;11.80;94.50;;;;;;4860894;28;93521;-73
2023/05/03 05:52:09;;;;;;;3.85;2.00;;;11.90;94.20;;;;;;4878083;28;92722;-72
2023/05/03 05:54:35;;;;;;;7.07;2.67;;;12.00;93.90;;;;;;4879293;28;92861;-72
2023/05/03 05:57:01;;;;;;;5.40;2.10;;;12.10;93.70;;;;;;4877637;28;93692;-72
2023/05/03 05:59:28;;;;;;;12.32;2.95;;;12.20;93.10;;;;;;4881252;28;93907;-73
2023/05/03 06:01:54;;;;;;;7.90;2.50;;;12.30;92.80;;;;;;4876738;28;92362;-72
2023/05/03 06:04:19;;;;;;;5.45;3.30;;;12.30;92.40;;;;;;4883771;28;93646;-72
2023/05/03 06:06:45;;;;;;;8.55;2.83;;;12.40;93.00;;;;;;4872041;28;92718;-72
2023/05/03 06:09:11;;;;;;;4.97;2.15;;;12.60;92.20;;;;;;4878324;28;93916;-72
2023/05/03 06:11:37;;;;;;;5.85;2.35;;;12.70;92.20;;;;;;4881961;28;92448;-72
2023/05/03 06:14:03;;;;;;;5.10;1.58;;;12.80;91.50;;;;;;4878951;28;91409;-73
2023/05/03 06:16:29;;;;;;;3.42;2.15;;;12.80;91.10;;;;;;4877995;28;93240;-73
2023/05/03 06:18:55;;;;;;;4.45;1.92;;;12.80;91.20;;;;;;4877568;28;92799;-73
2023/05/03 06:21:21;;;;;;;4.85;2.22;;;12.90;90.60;;;;;;4875812;28;93480;-72
2023/05/03 06:23:47;;;;;;;5.63;2.53;;;12.90;90.50;;;;;;4877334;28;92528;-73
2023/05/03 06:26:12;;;;;;;3.97;2.05;;;12.90;90.90;;;;;;4876886;28;93199;-73
2023/05/03 06:28:38;;;;;;;6.53;2.65;;;12.90;90.70;;;;;;4877880;28;92777;-73
2023/05/03 06:31:04;;;;;;;7.82;3.10;;;13.00;90.10;;;;;;4877281;28;92511;-72
2023/05/03 06:33:29;;;;;;;8.20;2.88;;;13.10;89.60;;;;;;4878152;28;92445;-72
2023/05/03 06:35:55;;;;;;;5.15;2.70;;;13.30;90.10;;;;;;4878369;28;92687;-73
2023/05/03 06:38:21;;;;;;;7.88;2.38;;;13.60;89.50;;;;;;4881208;28;93771;-73
2023/05/03 06:40:47;;;;;;;8.73;2.75;;;13.80;88.50;;;;;;4880710;28;92091;-73
2023/05/03 06:43:13;;;;;;;4.70;2.25;;;14.00;87.30;;;;;;4879793;28;93649;-73
2023/05/03 06:45:40;;;;;;;4.80;2.80;;;14.20;86.20;;;;;;4880096;28;94792;-73
2023/05/03 06:48:06;;;;;;;7.85;3.75;;;14.30;85.20;;;;;;4880457;28;94275;-73
2023/05/03 06:50:32;;;;;;;7.07;2.92;;;14.30;83.90;;;;;;4880309;28;93606;-73
2023/05/03 06:52:57;;;;;;;4.70;2.72;;;14.40;83.10;;;;;;4881219;28;92441;-73
2023/05/03 06:55:23;;;;;;;7.00;3.00;;;14.40;82.90;;;;;;4879469;28;92419;-73
2023/05/03 06:57:51;;;;;;;5.03;2.75;;;14.50;84.10;;;;;;4880704;28;92864;-73
2023/05/03 07:00:17;;;;;;;7.28;2.45;;;14.70;83.10;;;;;;4880436;28;92702;-73
2023/05/03 07:02:43;;;;;;;4.55;2.65;;;14.70;82.60;;;;;;4880819;28;91770;-73
2023/05/03 07:05:09;;;;;;;5.47;3.15;;;14.70;81.80;;;;;;4880565;28;93520;-73
2023/05/03 07:07:35;;;;;;;4.85;2.90;;;14.80;82.50;;;;;;4880189;28;92741;-72
2023/05/03 07:10:01;;;;;;;6.45;3.28;;;15.00;80.10;;;;;;4879615;28;93809;-74
2023/05/03 07:12:27;;;;;;;4.40;2.85;;;15.20;79.90;;;;;;4880308;28;93869;-72
2023/05/03 07:14:56;;;;;;;5.10;2.83;;;15.50;78.20;;;;;;4880329;28;93282;-72
2023/05/03 07:17:22;;;;;;;8.02;3.28;;;15.90;78.50;;;;;;4879323;28;92807;-72
2023/05/03 07:19:49;;;;;;;5.68;2.90;;;16.40;75.50;;;;;;4880877;28;92447;-73
2023/05/03 07:22:15;;;;;;;4.28;2.75;;;16.80;74.00;;;;;;4881121;28;92465;-72
2023/05/03 07:24:41;;;;;;;4.32;2.22;;;17.30;73.80;;;;;;4879853;28;94159;-72
2023/05/03 07:27:07;;;;;;;6.00;2.28;;;17.60;72.90;;;;;;4880260;28;92909;-72
2023/05/03 07:29:33;;;;;;;6.60;2.90;;;17.80;76.30;;;;;;4880151;28;92498;-72
2023/05/03 07:31:59;;;;;;;5.35;2.35;;;18.70;70.80;;;;;;4880969;28;92566;-72
2023/05/03 07:34:25;;;;;;;6.68;2.75;;;19.40;66.70;;;;;;4878838;28;94119;-73
2023/05/03 07:36:51;;;;;;;4.03;2.58;;;19.80;64.30;;;;;;4880087;28;93256;-73
2023/05/03 07:39:17;;;;;;;4.88;2.15;;;19.80;62.50;;;;;;4879301;28;92495;-73
2023/05/03 07:41:43;;;;;;;4.32;2.45;;;20.00;63.00;;;;;;4880334;28;92721;-72
2023/05/03 07:44:09;;;;;;;5.00;2.67;;;20.30;64.60;;;;;;4879878;28;93183;-73
2023/05/03 07:46:34;;;;;;;4.90;2.42;;;22.30;58.30;;;;;;4879663;28;92544;-73
2023/05/03 07:49:01;;;;;;;5.65;3.30;;;24.60;54.90;;;;;;4880029;28;92675;-74
2023/05/03 07:51:27;;;;;;;5.10;2.55;;;27.00;52.40;;;;;;4880162;28;92628;-74
2023/05/03 07:53:55;;;;;;;3.10;2.55;;;28.60;46.30;;;;;;4879391;28;93880;-74
2023/05/03 07:56:21;;;;;;;6.95;3.42;;;29.60;46.40;;;;;;4879044;28;93354;-75
2023/05/03 07:58:47;;;;;;;4.80;3.17;;;31.10;43.10;;;;;;4879082;28;93570;-74
2023/05/03 08:01:13;;;;;;;4.00;2.92;;;31.60;40.10;;;;;;4879448;28;92777;-76
2023/05/03 08:03:39;;;;;;;4.70;3.90;;;32.30;39.80;;;;;;4879129;28;92726;-74
2023/05/03 08:06:05;;;;;;;3.75;3.15;;;33.10;40.70;;;;;;4879234;28;92392;-74
2023/05/03 08:08:32;;;;;;;4.63;3.50;;;33.10;37.40;;;;;;4874596;28;92437;-75
2023/05/03 08:10:58;;;;;;;4.18;3.28;;;33.40;37.20;;;;;;4873236;28;92608;-74
2023/05/03 08:13:24;;;;;;;5.43;3.60;;;33.60;37.60;;;;;;4879645;28;92923;-75
2023/05/03 08:15:49;;;;;;;5.05;3.70;;;34.20;38.50;;;;;;4879414;28;93043;-75
2023/05/03 08:18:15;;;;;;;5.15;3.50;;;35.00;35.70;;;;;;4879373;28;92627;-75
2023/05/03 08:20:42;;;;;;;4.47;3.38;;;35.30;36.00;;;;;;4879881;28;92608;-75
2023/05/03 08:23:08;;;;;;;4.75;4.20;;;35.80;36.40;;;;;;4878653;28;94577;-75
2023/05/03 08:25:35;;;;;;;6.70;3.15;;;35.80;35.90;;;;;;4879155;28;94074;-75
2023/05/03 08:28:01;;;;;;;3.35;3.05;;;34.90;35.90;;;;;;4879220;28;92482;-75
2023/05/03 08:30:27;;;;;;;4.65;3.65;;;35.00;36.80;;;;;;4879591;28;92539;-75
2023/05/03 08:32:53;;;;;;;4.28;3.83;;;35.30;36.10;;;;;;4878389;28;92651;-75
2023/05/03 08:35:19;;;;;;;4.10;3.38;;;35.90;34.70;;;;;;4878601;28;92523;-76
2023/05/03 08:37:45;;;;;;;5.25;4.15;;;36.00;36.50;;;;;;4879122;28;92462;-76
2023/05/03 08:40:12;;;;;;;4.43;3.97;;;36.20;36.10;;;;;;4879428;28;91627;-76
2023/05/03 08:42:40;;;;;;;4.82;3.58;;;36.50;35.30;;;;;;4879004;28;93050;-76
2023/05/03 08:45:08;;;;;;;4.63;4.18;;;36.60;34.90;;;;;;4878591;28;92904;-76
2023/05/03 08:47:37;;;;;;;5.90;5.30;;;37.00;34.50;;;;;;4879139;28;93760;-75
2023/05/03 08:50:04;;;;;;;7.82;6.45;;;37.20;34.80;;;;;;4878869;28;92729;-75
2023/05/03 08:52:30;;;;;;;5.57;4.68;;;37.40;35.40;;;;;;4878190;28;93880;-76
2023/05/03 08:54:56;;;;;;;7.10;4.43;;;38.00;34.00;;;;;;4879205;28;92494;-75
2023/05/03 08:57:23;;;;;;;5.32;4.82;;;37.70;33.40;;;;;;4878870;28;92636;-76
2023/05/03 08:59:50;;;;;;;5.07;4.32;;;38.00;32.80;;;;;;4878010;28;92594;-76
2023/05/03 09:02:16;;;;;;;4.60;3.67;;;37.80;34.00;;;;;;4875582;28;93792;-76
2023/05/03 09:04:42;;;;;;;4.95;4.45;;;37.80;33.70;;;;;;4878879;28;92911;-76
2023/05/03 09:07:12;;;;;;;4.20;3.78;;;38.00;34.00;;;;;;4878745;28;92155;-75
2023/05/03 09:09:38;;;;;;;5.15;4.72;;;37.80;33.20;;;;;;4878737;28;92554;-76
2023/05/03 09:12:04;;;;;;;5.13;3.50;;;38.40;33.10;;;;;;4877264;28;93744;-76
2023/05/03 09:14:30;;;;;;;7.63;3.45;;;38.40;33.30;;;;;;4878091;28;94303;-76
2023/05/03 09:17:16;;;;;;;5.60;3.63;;;38.50;33.70;;;;;;4878784;28;92539;-76
2023/05/03 09:19:53;;;;;;;5.15;3.92;;;38.90;32.20;;;;;;4879321;28;92623;-76
2023/05/03 09:22:19;;;;;;;8.70;5.97;;;39.60;31.90;;;;;;4877784;28;93365;-76
2023/05/03 09:24:52;;;;;;;5.57;4.32;;;39.70;31.50;;;;;;4877283;28;93471;-76
2023/05/03 09:27:20;;;;;;;3.85;3.38;;;40.00;30.50;;;;;;4867323;28;92566;-76
2023/05/03 09:29:46;;;;;;;3.88;3.25;;;39.50;31.60;;;;;;4878965;28;91955;-77
2023/05/03 09:32:12;;;;;;;3.17;2.80;;;39.30;32.00;;;;;;4877139;28;93825;-75
2023/05/03 09:34:37;;;;;;;7.63;5.95;;;40.00;31.80;;;;;;4877205;28;92580;-75
2023/05/03 09:37:03;;;;;;;6.70;4.80;;;40.30;31.00;;;;;;4878369;28;93400;-76
2023/05/03 09:39:29;;;;;;;5.63;3.83;;;40.10;31.20;;;;;;4878764;28;92675;-76
2023/05/03 09:41:55;;;;;;;4.15;3.67;;;39.30;30.90;;;;;;4873371;28;93804;-76
2023/05/03 09:44:40;;;;;;;3.30;3.00;;;39.40;31.70;;;;;;4877233;28;93349;-77
2023/05/03 09:47:07;;;;;;;4.05;2.70;;;39.00;32.10;;;;;;4876815;28;94757;-75
2023/05/03 09:49:33;;;;;;;5.32;3.55;;;38.90;32.00;;;;;;4877532;28;92337;-76
2023/05/03 09:52:00;;;;;;;3.55;2.92;;;38.00;32.00;;;;;;4877269;28;93327;-76
2023/05/03 09:54:27;;;;;;;3.67;2.42;;;38.10;30.90;;;;;;4878417;28;92285;-75
2023/05/03 09:56:57;;;;;;;4.70;2.30;;;38.20;32.50;;;;;;4875879;28;94052;-77
2023/05/03 09:59:23;;;;;;;5.18;4.68;;;37.90;32.30;;;;;;4878438;28;92740;-75
2023/05/03 10:01:54;;;;;;;3.70;2.70;;;37.40;32.40;;;;;;4875238;28;94270;-76
2023/05/03 10:04:23;;;;;;;2.92;1.60;;;36.80;32.40;;;;;;4870071;28;93357;-75
2023/05/03 10:06:52;;;;;;;1.83;1.55;;;35.10;33.10;;;;;;4875701;28;92717;-75
2023/05/03 10:09:27;;;;;;;1.92;1.50;;;33.60;35.40;;;;;;4874360;28;92666;-74
2023/05/03 10:11:53;;;;;;;;;;;32.40;37.10;;;;;;4873879;28;94381;-74
2023/05/03 10:14:23;;;;;;;3.35;2.45;;;31.00;39.30;;;;;;4880522;28;93155;-73
2023/05/03 10:16:52;;;;;;;2.53;1.27;;;29.30;42.00;;;;;;4879836;28;92568;-74
2023/05/03 10:19:31;;;;;;;2.05;1.50;;;28.70;42.50;;;;;;4878104;28;93317;-73
2023/05/03 10:22:06;;;;;;;2.35;1.70;;;27.60;42.50;;;;;;4880533;28;93702;-73
2023/05/03 10:24:33;;;;;;;2.85;1.58;;;26.50;44.50;;;;;;4870057;28;94111;-73
2023/05/03 10:26:59;;;;;;;2.08;0.93;;;25.70;47.50;;;;;;4872508;28;93676;-73
2023/05/03 10:29:50;;;;;;;3.28;1.27;;;24.90;47.50;;;;;;4880483;28;92522;-74
2023/05/03 10:32:32;;;;;;;4.80;1.17;;;24.50;49.40;;;;;;4867956;28;93619;-73
2023/05/03 10:35:09;;;;;;;3.40;1.40;;;24.20;49.10;;;;;;4880288;28;93186;-74
2023/05/03 10:37:35;;;;;;;3.38;1.38;;;23.80;51.00;;;;;;4880183;28;92594;-74
2023/05/03 10:40:09;;;;;;;6.10;1.52;;;23.50;52.90;;;;;;4881292;28;92262;-72
2023/05/03 10:42:37;;;;;;;2.60;1.27;;;23.40;52.80;;;;;;4875710;28;95472;-72
2023/05/03 10:45:03;;;;;;;2.40;1.30;;;22.90;53.40;;;;;;4878598;28;92918;-74
2023/05/03 10:47:29;;;;;;;2.95;1.40;;;22.80;52.60;;;;;;4876365;28;92462;-73
2023/05/03 10:50:13;;;;;;;3.88;1.73;;;22.90;54.60;;;;;;4863675;28;92768;-73
2023/05/03 10:52:39;;;;;;;3.17;2.03;;;22.80;54.90;;;;;;4876913;28;94474;-73
2023/05/03 10:55:17;;;;;;;5.20;1.90;;;22.80;55.80;;;;;;4874461;28;93884;-73
2023/05/03 10:57:45;;;;;;;4.22;1.70;;;22.80;55.20;;;;;;4871626;28;92622;-73
2023/05/03 11:00:15;;;;;;;5.53;1.90;;;22.90;54.80;;;;;;4870909;28;92439;-73
2023/05/03 11:03:17;;;;;;;3.40;1.98;;;22.80;53.90;;;;;;4872999;28;93279;-74
2023/05/03 11:05:43;;;;;;;3.03;1.55;;;22.50;56.00;;;;;;4873523;28;92634;-73
2023/05/03 11:08:19;;;;;;;3.70;2.20;;;22.30;56.80;;;;;;4861293;28;92558;-73
2023/05/03 11:10:46;;;;;;;4.05;2.13;;;22.50;57.30;;;;;;4877356;28;92775;-73
2023/05/03 11:13:12;;;;;;;5.22;2.20;;;22.40;54.10;;;;;;4873779;28;94154;-73
2023/05/03 11:15:38;;;;;;;3.40;1.85;;;22.40;56.60;;;;;;4869801;28;93070;-72
2023/05/03 11:18:10;;;;;;;3.38;2.35;;;22.40;57.30;;;;;;4883488;28;93896;-73
2023/05/03 11:20:37;;;;;;;3.70;2.00;;;22.30;55.80;;;;;;4881273;28;92545;-72
2023/05/03 11:23:04;;;;;;;9.75;2.97;;;22.30;54.50;;;;;;4876577;28;93682;-73
2023/05/03 11:25:32;;;;;;;3.88;2.15;;;22.20;58.70;;;;;;4872460;28;93030;-74
2023/05/03 11:28:00;;;;;;;3.95;2.63;;;22.30;57.60;;;;;;4885843;28;93854;-73
2023/05/03 11:30:26;;;;;;;4.50;2.20;;;22.50;57.30;;;;;;4872118;28;92651;-73
2023/05/03 11:32:52;;;;;;;4.07;2.47;;;22.50;57.30;;;;;;4879585;28;93260;-73
2023/05/03 11:35:20;;;;;;;4.82;2.72;;;22.60;56.60;;;;;;4876131;28;92371;-73
2023/05/03 11:37:45;;;;;;;4.85;2.63;;;22.50;56.10;;;;;;4873132;28;93385;-73
2023/05/03 11:40:15;;;;;;;5.13;2.53;;;22.30;57.20;;;;;;4872666;28;92405;-74
2023/05/03 11:42:57;;;;;;;3.60;2.13;;;22.30;56.90;;;;;;4875105;28;93939;-73
2023/05/03 11:45:39;;;;;;;5.70;2.55;;;22.30;56.80;;;;;;4880119;28;93289;-73
2023/05/03 11:48:06;;;;;;;4.43;2.35;;;22.40;59.30;;;;;;4886239;28;93211;-73
2023/05/03 11:50:54;;;;;;;5.75;2.42;;;22.40;58.30;;;;;;4874333;28;92624;-75
2023/05/03 11:53:21;;;;;;;3.90;2.22;;;22.50;57.70;;;;;;4869612;28;93723;-75
2023/05/03 11:55:50;;;;;;;4.78;2.30;;;22.60;56.30;;;;;;4856022;28;93810;-75
2023/05/03 11:58:18;;;;;;;5.53;2.63;;;22.40;55.70;;;;;;4868163;28;92608;-74
2023/05/03 12:00:46;;;;;;;5.78;2.40;;;22.50;57.30;;;;;;4860848;28;92128;-74
2023/05/03 12:03:23;;;;;;;4.32;2.22;;;22.40;58.30;;;;;;4876323;28;94347;-74
2023/05/03 12:05:51;;;;;;;3.90;1.90;;;22.20;56.20;;;;;;4871085;28;93175;-74
2023/05/03 12:08:20;;;;;;;4.65;1.75;;;22.10;57.70;;;;;;4877202;28;93516;-75
2023/05/03 12:10:46;;;;;;;3.00;1.70;;;22.20;56.70;;;;;;4879690;28;93884;-74
2023/05/03 12:13:12;;;;;;;4.90;1.75;;;22.30;55.60;;;;;;4877141;28;93983;-74
2023/05/03 12:15:39;;;;;;;5.20;2.13;;;22.50;57.20;;;;;;4876239;28;92942;-75
2023/05/03 12:18:10;;;;;;;6.55;2.13;;;22.50;57.10;;;;;;4878670;28;92518;-75
2023/05/03 12:20:37;;;;;;;7.95;2.33;;;22.60;58.50;;;;;;4874164;28;92544;-75
2023/05/03 12:23:07;;;;;;;4.30;1.83;;;22.70;58.10;;;;;;4872796;28;93066;-74
2023/05/03 12:25:35;;;;;;;4.88;1.92;;;22.50;56.20;;;;;;4873609;28;92692;-74
2023/05/03 12:28:03;;;;;;;3.58;1.33;;;22.50;55.10;;;;;;4871488;28;92706;-74
2023/05/03 12:30:29;;;;;;;3.80;1.30;;;22.50;54.80;;;;;;4870223;28;92799;-75
2023/05/03 12:32:55;;;;;;;2.80;1.20;;;22.50;56.40;;;;;;4868754;28;93556;-75
2023/05/03 12:35:22;;;;;;;2.42;1.40;;;22.40;56.50;;;;;;4876663;28;93683;-74
2023/05/03 12:37:49;;;;;;;2.53;1.27;;;22.40;53.80;;;;;;4872574;28;93085;-74
2023/05/03 12:40:18;;;;;;;2.47;1.10;;;22.40;57.00;;;;;;4871603;28;93814;-75
2023/05/03 12:42:44;;;;;;;5.03;1.30;;;22.60;56.10;;;;;;4873206;28;93333;-75
2023/05/03 12:45:14;;;;;;;4.03;1.50;;;22.60;55.80;;;;;;4882804;28;93110;-75
2023/05/03 12:47:40;;;;;;;3.03;1.27;;;22.60;57.30;;;;;;4866273;28;92736;-73
2023/05/03 12:50:08;;;;;;;3.10;1.27;;;22.60;55.20;;;;;;4870710;28;91803;-74
2023/05/03 12:52:35;;;;;;;5.28;1.38;;;22.50;56.00;;;;;;4876315;28;94329;-75
2023/05/03 12:55:02;;;;;;;3.50;1.52;;;22.60;55.50;;;;;;4882336;28;93221;-73
2023/05/03 12:57:28;;;;;;;3.80;1.65;;;22.60;56.50;;;;;;4880101;28;93730;-76
2023/05/03 12:59:54;;;;;;;5.68;2.03;;;22.70;54.90;;;;;;4876216;28;92651;-75
2023/05/03 13:02:20;;;;;;;3.92;1.42;;;22.70;57.30;;;;;;4869423;28;93970;-76
2023/05/03 13:04:49;;;;;;;4.68;1.40;;;22.80;57.00;;;;;;4876854;28;92988;-76
2023/05/03 13:07:15;;;;;;;5.53;1.45;;;22.70;54.70;;;;;;4875576;28;93924;-75
2023/05/03 13:09:43;;;;;;;2.78;1.02;;;22.70;56.10;;;;;;4876297;28;92181;-75
2023/05/03 13:12:09;;;;;;;2.85;1.23;;;22.60;57.70;;;;;;4874576;28;94051;-75
2023/05/03 13:14:35;;;;;;;4.47;1.15;;;22.70;56.00;;;;;;4876466;28;93119;-75
2023/05/03 13:17:01;;;;;;;4.63;1.08;;;22.70;55.50;;;;;;4873189;28;93703;-75
2023/05/03 13:19:27;;;;;;;8.15;1.77;;;22.70;54.30;;;;;;4874994;28;92369;-74
2023/05/03 13:21:53;;;;;;;2.30;1.02;;;22.80;56.60;;;;;;4873502;28;94763;-76
2023/05/03 13:24:19;;;;;;;4.95;1.58;;;22.80;55.80;;;;;;4873755;28;94167;-76
2023/05/03 13:26:45;;;;;;;2.58;1.05;;;22.70;56.20;;;;;;4877227;28;92627;-75
2023/05/03 13:29:11;;;;;;;2.63;1.17;;;22.70;56.10;;;;;;4874561;28;92520;-76
2023/05/03 13:31:37;;;;;;;4.65;1.20;;;22.60;56.10;;;;;;4882667;28;93386;-77
2023/05/03 13:34:02;;;;;;;1.88;0.85;;;22.70;55.60;;;;;;4873075;28;93428;-77
2023/05/03 13:36:28;;;;;;;1.95;0.95;;;22.60;55.00;;;;;;4873065;28;93449;-77
2023/05/03 13:38:54;;;;;;;2.15;0.93;;;22.60;55.80;;;;;;4875400;28;91792;-76
2023/05/03 13:41:21;;;;;;;1.80;0.80;;;22.60;56.10;;;;;;4875811;28;93189;-77
2023/05/03 13:43:47;;;;;;;2.50;0.68;;;22.60;56.40;;;;;;4874308;28;92576;-77
2023/05/03 13:46:13;;;;;;;4.93;1.10;;;22.50;56.20;;;;;;4877069;28;93895;-76
2023/05/03 13:48:39;;;;;;;1.38;0.70;;;22.50;54.90;;;;;;4877948;28;92539;-76
2023/05/03 13:51:09;;;;;;;2.05;1.15;;;22.20;54.00;;;;;;4877508;28;92490;-76
2023/05/03 13:53:35;;;;;;;3.25;1.00;;;22.30;53.90;;;;;;4875646;28;94001;-76
2023/05/03 13:56:02;;;;;;;1.58;0.73;;;22.20;56.20;;;;;;4876792;28;92665;-76
2023/05/03 13:58:28;;;;;;;3.45;0.60;;;22.10;54.60;;;;;;4878053;28;92639;-77
2023/05/03 14:00:53;;;;;;;3.58;0.75;;;22.20;55.50;;;;;;4876887;28;93162;-76
2023/05/03 14:03:19;;;;;;;1.77;0.90;;;22.10;54.30;;;;;;4876450;28;92236;-75
2023/05/03 14:05:45;;;;;;;2.83;0.60;;;22.10;55.20;;;;;;4882338;28;93762;-77
2023/05/03 14:08:11;;;;;;;2.78;0.60;;;22.10;56.20;;;;;;4888645;28;92526;-76
2023/05/03 14:10:36;;;;;;;1.98;0.63;;;22.00;55.30;;;;;;4884364;28;94677;-77
2023/05/03 14:13:02;;;;;;;2.53;0.88;;;22.00;57.70;;;;;;4877951;28;94214;-75
2023/05/03 14:15:28;;;;;;;2.05;0.75;;;22.00;55.70;;;;;;4875750;28;94010;-77
2023/05/03 14:17:54;;;;;;;1.33;0.73;;;21.80;55.60;;;;;;4874040;28;92578;-76
2023/05/03 14:20:20;;;;;;;2.20;0.82;;;21.60;55.90;;;;;;4877280;28;92672;-76
2023/05/03 14:22:45;;;;;;;2.85;1.10;;;21.60;57.20;;;;;;4879309;28;92749;-76
2023/05/03 14:25:11;;;;;;;2.13;0.88;;;21.50;55.70;;;;;;4873432;28;93480;-76
2023/05/03 14:27:37;;;;;;;1.95;0.90;;;21.30;55.50;;;;;;4872604;28;91991;-76
2023/05/03 14:30:04;;;;;;;3.63;1.02;;;21.30;58.00;;;;;;4874242;28;94160;-76
2023/05/03 14:32:29;;;;;;;2.05;1.40;;;21.30;57.00;;;;;;4873798;28;94396;-76
2023/05/03 14:34:55;;;;;;;2.60;1.10;;;21.30;56.10;;;;;;4875252;28;94176;-76
2023/05/03 14:37:21;;;;;;;4.15;1.08;;;21.30;58.10;;;;;;4874759;28;93558;-76
2023/05/03 14:39:47;;;;;;;2.17;0.90;;;21.40;59.50;;;;;;4875880;28;93946;-76
2023/05/03 14:42:14;;;;;;;4.47;1.10;;;21.20;57.90;;;;;;4873049;28;93262;-76
2023/05/03 14:44:40;;;;;;;2.88;1.23;;;21.20;57.90;;;;;;4875726;28;92449;-76
2023/05/03 14:47:06;;;;;;;2.78;1.52;;;21.30;58.60;;;;;;4874645;28;92528;-76
2023/05/03 14:49:39;;;;;;;3.10;1.13;;;21.40;58.90;;;;;;4874626;28;93670;-76
2023/05/03 14:52:06;;;;;;;3.47;1.10;;;21.30;58.10;;;;;;4875112;28;93798;-77
2023/05/03 14:54:32;;;;;;;2.25;1.25;;;21.20;58.50;;;;;;4875057;28;92481;-76
2023/05/03 14:56:58;;;;;;;4.10;1.13;;;21.20;58.90;;;;;;4878851;28;92934;-76
2023/05/03 14:59:24;;;;;;;4.32;1.30;;;21.20;58.30;;;;;;4881295;28;93733;-76
2023/05/03 15:01:53;;;;;;;2.00;1.02;;;21.10;58.30;;;;;;4874984;28;93276;-76
2023/05/03 15:04:19;;;;;;;3.88;1.10;;;21.10;57.30;;;;;;4874985;28;92740;-74
2023/05/03 15:06:45;;;;;;;3.80;0.90;;;21.10;59.80;;;;;;4873474;28;94472;-75
2023/05/03 15:09:11;;;;;;;2.42;1.15;;;21.00;58.40;;;;;;4873925;28;93247;-75
2023/05/03 15:11:40;;;;;;;3.05;1.00;;;20.90;57.40;;;;;;4874100;28;93238;-75
2023/05/03 15:14:07;;;;;;;3.63;1.70;;;20.90;59.30;;;;;;4860287;28;92618;-75
2023/05/03 15:16:33;;;;;;;4.03;2.10;;;20.80;58.60;;;;;;4877407;28;91755;-76
2023/05/03 15:19:00;;;;;;;4.50;2.28;;;20.80;59.70;;;;;;4879596;28;92740;-75
2023/05/03 15:21:27;;;;;;;6.28;1.48;;;20.60;61.50;;;;;;4881450;28;92654;-75
2023/05/03 15:23:53;;;;;;;3.88;1.65;;;20.60;62.20;;;;;;4875488;28;95441;-75
2023/05/03 15:26:20;;;;;;;5.20;1.75;;;20.60;61.20;;;;;;4878299;28;92435;-75
2023/05/03 15:28:45;;;;;;;3.47;1.45;;;20.60;60.60;;;;;;4873609;28;92840;-75
2023/05/03 15:31:13;;;;;;;2.85;1.52;;;20.50;60.80;;;;;;4887834;28;92824;-75
2023/05/03 15:33:43;;;;;;;3.08;1.52;;;20.30;59.50;;;;;;4877718;28;92806;-75
2023/05/03 15:36:15;;;;;;;4.32;1.67;;;20.20;60.90;;;;;;4875939;28;92860;-75
2023/05/03 15:38:41;;;;;;;4.50;1.58;;;20.10;61.40;;;;;;4878076;28;93070;-75
2023/05/03 15:41:09;;;;;;;3.35;1.90;;;20.00;61.90;;;;;;4887399;28;92160;-75
2023/05/03 15:43:34;;;;;;;3.88;1.20;;;20.00;62.00;;;;;;4877533;28;92460;-75
2023/05/03 15:46:01;;;;;;;2.90;1.65;;;20.10;63.30;;;;;;4877634;28;92558;-75
2023/05/03 15:48:26;;;;;;;4.05;1.50;;;20.10;61.70;;;;;;4879472;28;93658;-75